Orion Explorer — LNDT — position and weather

sailwx.info

Track history (hours):
 
Tides and Currents Weather Stations Pressure Air Temp Water Temp Dewpoint Dewpoint Depression Visibility Wind Speed Wind Dir Waves Ship Positions

Orion Explorer

Last reported at 2016-Jun-22 23:08 UTC. Time now 2016-Jun-24 23:57 UTC.
Position N 69°20' E 018°02'.

Length 59 m; draft 4.5 m.

Type: Cargo ship. MMSI: 259496000.

Date/timePositionNaut miles runAvg speedWind from/ knotsBaromVisibWave heightAir tempDewpointWater temp
2016-Jun-22 23:08N 69°20' E 018°02'610.4
2016-Jun-22 22:33N 69°14' E 017°58'9 9.1
2016-Jun-22 21:32N 69°07' E 017°40'7 7.2
2016-Jun-22 20:33N 69°01' E 017°31'0 0.0
2016-Jun-22 19:33N 69°01' E 017°31'1 1.4
2016-Jun-22 18:33N 69°01' E 017°27'5 0.2
2016-Jun-21 11:06N 69°06' E 017°28'611.7
2016-Jun-21 10:33N 69°08' E 017°45'9 8.9
2016-Jun-21 09:33N 69°16' E 017°58'  
2016-Jun-17 10:29N 69°17' E 017°58'8 8.4
2016-Jun-17 09:33N 69°10' E 017°53'5 5.3
2016-Jun-17 08:33N 69°09' E 017°39'4 4.4
2016-Jun-17 07:33N 69°05' E 017°31'17 0.4
2016-Jun-15 17:32N 69°19' E 017°59'9 9.5
2016-Jun-15 16:33N 69°09' E 017°55'3 3.1
2016-Jun-15 15:32N 69°08' E 017°48'4 3.6
2016-Jun-15 14:33N 69°09' E 017°39'0 0.0
2016-Jun-15 13:33N 69°09' E 017°39'4 4.5
2016-Jun-15 12:33N 69°05' E 017°31'0 0.0
2016-Jun-15 11:32N 69°05' E 017°31'3 0.1
2016-Jun-14 07:13N 69°05' E 017°23'16 9.6
2016-Jun-14 05:33N 69°15' E 017°58'  
Track history (hours):
 
Tides and Currents Weather Stations Pressure Air Temp Water Temp Dewpoint Dewpoint Depression Visibility Wind Speed Wind Dir Waves Ship Positions

Orion Explorer

Last reported at 2016-Jun-22 23:08 UTC. Time now 2016-Jun-24 23:57 UTC.
Position N 69°20' E 018°02'.

Length 59 m; draft 4.5 m.

Type: Cargo ship. MMSI: 259496000.

Date/timePositionNaut miles runAvg speedWind from/ knotsBaromVisibWave heightAir tempDewpointWater temp
2016-Jun-22 23:08N 69°20' E 018°02'610.4
2016-Jun-22 22:33N 69°14' E 017°58'9 9.1
2016-Jun-22 21:32N 69°07' E 017°40'7 7.2
2016-Jun-22 20:33N 69°01' E 017°31'0 0.0
2016-Jun-22 19:33N 69°01' E 017°31'1 1.4
2016-Jun-22 18:33N 69°01' E 017°27'5 0.2
2016-Jun-21 11:06N 69°06' E 017°28'611.7
2016-Jun-21 10:33N 69°08' E 017°45'9 8.9
2016-Jun-21 09:33N 69°16' E 017°58'  
2016-Jun-17 10:29N 69°17' E 017°58'8 8.4
2016-Jun-17 09:33N 69°10' E 017°53'5 5.3
2016-Jun-17 08:33N 69°09' E 017°39'4 4.4
2016-Jun-17 07:33N 69°05' E 017°31'17 0.4
2016-Jun-15 17:32N 69°19' E 017°59'9 9.5
2016-Jun-15 16:33N 69°09' E 017°55'3 3.1
2016-Jun-15 15:32N 69°08' E 017°48'4 3.6
2016-Jun-15 14:33N 69°09' E 017°39'0 0.0
2016-Jun-15 13:33N 69°09' E 017°39'4 4.5
2016-Jun-15 12:33N 69°05' E 017°31'0 0.0
2016-Jun-15 11:32N 69°05' E 017°31'3 0.1
2016-Jun-14 07:13N 69°05' E 017°23'16 9.6
2016-Jun-14 05:33N 69°15' E 017°58'  

Dump ship's entire track history